sensor_id;sensor_type;location;lat;lon;timestamp;temperature;humidity
9939;DHT22;5008;50.656;7.188;2022-12-20T03:56:28;8.00;99.90
9939;DHT22;5008;50.656;7.188;2022-12-20T03:58:55;8.10;99.90
9939;DHT22;5008;50.656;7.188;2022-12-20T04:01:24;8.00;99.90
9939;DHT22;5008;50.656;7.188;2022-12-20T04:03:51;8.00;99.90
9939;DHT22;5008;50.656;7.188;2022-12-20T04:06:18;8.10;99.90
9939;DHT22;5008;50.656;7.188;2022-12-20T04:08:46;8.10;99.90
9939;DHT22;5008;50.656;7.188;2022-12-20T04:11:13;8.00;99.90
9939;DHT22;5008;50.656;7.188;2022-12-20T04:13:45;8.00;99.90
9939;DHT22;5008;50.656;7.188;2022-12-20T04:16:14;8.00;99.90
9939;DHT22;5008;50.656;7.188;2022-12-20T04:18:41;7.90;99.90
9939;DHT22;5008;50.656;7.188;2022-12-20T04:21:08;7.90;99.90
9939;DHT22;5008;50.656;7.188;2022-12-20T04:23:36;8.00;99.90
9939;DHT22;5008;50.656;7.188;2022-12-20T04:26:05;8.10;99.90
9939;DHT22;5008;50.656;7.188;2022-12-20T04:28:33;8.20;99.90
9939;DHT22;5008;50.656;7.188;2022-12-20T04:31:01;8.60;99.90
9939;DHT22;5008;50.656;7.188;2022-12-20T04:33:29;8.60;99.90
9939;DHT22;5008;50.656;7.188;2022-12-20T04:35:56;8.80;99.90
9939;DHT22;5008;50.656;7.188;2022-12-20T04:38:30;8.80;99.90
9939;DHT22;5008;50.656;7.188;2022-12-20T04:40:56;8.80;99.90
9939;DHT22;5008;50.656;7.188;2022-12-20T04:43:24;8.70;99.90
9939;DHT22;5008;50.656;7.188;2022-12-20T04:45:52;8.70;99.90
9939;DHT22;5008;50.656;7.188;2022-12-20T04:48:22;8.70;99.90
9939;DHT22;5008;50.656;7.188;2022-12-20T04:50:52;8.70;99.90
9939;DHT22;5008;50.656;7.188;2022-12-20T04:53:19;8.70;99.90
9939;DHT22;5008;50.656;7.188;2022-12-20T04:56:04;8.80;99.90
9939;DHT22;5008;50.656;7.188;2022-12-20T04:58:40;8.70;99.90
9939;DHT22;5008;50.656;7.188;2022-12-20T05:01:07;8.60;99.90
9939;DHT22;5008;50.656;7.188;2022-12-20T05:03:35;8.70;99.90
9939;DHT22;5008;50.656;7.188;2022-12-20T05:06:03;8.70;99.90
9939;DHT22;5008;50.656;7.188;2022-12-20T05:08:30;8.60;99.90
9939;DHT22;5008;50.656;7.188;2022-12-20T05:10:57;8.50;99.90
9939;DHT22;5008;50.656;7.188;2022-12-20T05:13:24;8.50;99.90
9939;DHT22;5008;50.656;7.188;2022-12-20T05:15:52;8.40;99.90
9939;DHT22;5008;50.656;7.188;2022-12-20T05:18:19;8.40;99.90
9939;DHT22;5008;50.656;7.188;2022-12-20T05:20:48;8.30;99.90
9939;DHT22;5008;50.656;7.188;2022-12-20T05:23:36;8.30;99.90
9939;DHT22;5008;50.656;7.188;2022-12-20T05:26:22;8.20;99.90
9939;DHT22;5008;50.656;7.188;2022-12-20T05:28:49;8.20;99.90
9939;DHT22;5008;50.656;7.188;2022-12-20T05:31:17;8.10;99.90
9939;DHT22;5008;50.656;7.188;2022-12-20T05:33:43;8.10;99.90
9939;DHT22;5008;50.656;7.188;2022-12-20T05:36:12;8.00;99.90
9939;DHT22;5008;50.656;7.188;2022-12-20T05:38:39;8.00;99.90
9939;DHT22;5008;50.656;7.188;2022-12-20T05:41:06;7.90;99.90
9939;DHT22;5008;50.656;7.188;2022-12-20T05:43:33;7.90;99.90
9939;DHT22;5008;50.656;7.188;2022-12-20T05:46:00;7.90;99.90
9939;DHT22;5008;50.656;7.188;2022-12-20T05:48:26;7.80;99.90
9939;DHT22;5008;50.656;7.188;2022-12-20T05:50:53;7.90;99.90
9939;DHT22;5008;50.656;7.188;2022-12-20T05:53:21;7.90;99.90
9939;DHT22;5008;50.656;7.188;2022-12-20T05:55:50;7.90;99.90
9939;DHT22;5008;50.656;7.188;2022-12-20T05:58:17;7.90;99.90
9939;DHT22;5008;50.656;7.188;2022-12-20T06:00:44;7.90;99.90
9939;DHT22;5008;50.656;7.188;2022-12-20T06:03:12;8.10;99.90
9939;DHT22;5008;50.656;7.188;2022-12-20T06:05:40;8.10;99.90
9939;DHT22;5008;50.656;7.188;2022-12-20T06:08:07;8.10;99.90
9939;DHT22;5008;50.656;7.188;2022-12-20T06:10:35;8.00;99.90
9939;DHT22;5008;50.656;7.188;2022-12-20T06:13:03;8.00;99.90
9939;DHT22;5008;50.656;7.188;2022-12-20T06:15:30;8.00;99.90
9939;DHT22;5008;50.656;7.188;2022-12-20T06:17:57;8.10;99.90
9939;DHT22;5008;50.656;7.188;2022-12-20T06:20:24;8.00;99.90
9939;DHT22;5008;50.656;7.188;2022-12-20T06:22:51;8.00;99.90
9939;DHT22;5008;50.656;7.188;2022-12-20T06:25:18;8.10;99.90
9939;DHT22;5008;50.656;7.188;2022-12-20T06:27:46;8.20;99.90
9939;DHT22;5008;50.656;7.188;2022-12-20T06:30:13;8.50;99.90
9939;DHT22;5008;50.656;7.188;2022-12-20T06:32:40;8.50;99.90
9939;DHT22;5008;50.656;7.188;2022-12-20T06:35:08;8.50;99.90
9939;DHT22;5008;50.656;7.188;2022-12-20T06:37:48;8.60;99.90
9939;DHT22;5008;50.656;7.188;2022-12-20T06:40:15;8.60;99.90
9939;DHT22;5008;50.656;7.188;2022-12-20T06:42:42;8.60;99.90
9939;DHT22;5008;50.656;7.188;2022-12-20T06:45:11;8.70;99.90
9939;DHT22;5008;50.656;7.188;2022-12-20T06:47:40;8.70;99.90
9939;DHT22;5008;50.656;7.188;2022-12-20T06:50:08;8.70;99.90
9939;DHT22;5008;50.656;7.188;2022-12-20T06:52:34;8.60;99.90
9939;DHT22;5008;50.656;7.188;2022-12-20T06:55:01;8.60;99.90
9939;DHT22;5008;50.656;7.188;2022-12-20T06:57:28;8.60;99.90
9939;DHT22;5008;50.656;7.188;2022-12-20T06:59:55;8.50;99.90
9939;DHT22;5008;50.656;7.188;2022-12-20T07:02:23;8.60;99.90
9939;DHT22;5008;50.656;7.188;2022-12-20T07:04:50;8.60;99.90
9939;DHT22;5008;50.656;7.188;2022-12-20T07:07:17;8.50;99.90
9939;DHT22;5008;50.656;7.188;2022-12-20T07:09:44;8.60;99.90
9939;DHT22;5008;50.656;7.188;2022-12-20T07:12:10;8.70;99.90
9939;DHT22;5008;50.656;7.188;2022-12-20T07:14:37;8.70;99.90
9939;DHT22;5008;50.656;7.188;2022-12-20T07:17:04;8.70;99.90
9939;DHT22;5008;50.656;7.188;2022-12-20T07:19:33;8.90;99.90
9939;DHT22;5008;50.656;7.188;2022-12-20T07:22:00;8.90;99.90
9939;DHT22;5008;50.656;7.188;2022-12-20T07:24:27;8.80;99.90
9939;DHT22;5008;50.656;7.188;2022-12-20T07:26:54;8.70;99.90
9939;DHT22;5008;50.656;7.188;2022-12-20T07:29:21;8.60;99.90
9939;DHT22;5008;50.656;7.188;2022-12-20T07:31:47;8.50;99.90
9939;DHT22;5008;50.656;7.188;2022-12-20T07:34:14;8.50;99.90
9939;DHT22;5008;50.656;7.188;2022-12-20T07:36:43;8.60;99.90
9939;DHT22;5008;50.656;7.188;2022-12-20T07:39:10;8.60;99.90
9939;DHT22;5008;50.656;7.188;2022-12-20T07:41:37;8.60;99.90
9939;DHT22;5008;50.656;7.188;2022-12-20T07:44:04;8.50;99.90
9939;DHT22;5008;50.656;7.188;2022-12-20T07:46:31;8.50;99.90
9939;DHT22;5008;50.656;7.188;2022-12-20T07:48:58;8.60;99.90
9939;DHT22;5008;50.656;7.188;2022-12-20T07:51:27;8.90;99.90
9939;DHT22;5008;50.656;7.188;2022-12-20T07:53:59;9.10;99.90
9939;DHT22;5008;50.656;7.188;2022-12-20T07:56:27;9.10;99.90
9939;DHT22;5008;50.656;7.188;2022-12-20T07:58:58;9.10;99.90
9939;DHT22;5008;50.656;7.188;2022-12-20T08:01:26;9.00;99.90
9939;DHT22;5008;50.656;7.188;2022-12-20T08:03:58;9.00;99.90
9939;DHT22;5008;50.656;7.188;2022-12-20T08:06:28;9.00;99.90
9939;DHT22;5008;50.656;7.188;2022-12-20T08:08:59;9.10;99.90
9939;DHT22;5008;50.656;7.188;2022-12-20T08:11:29;9.10;99.90
9939;DHT22;5008;50.656;7.188;2022-12-20T08:13:58;9.10;99.90
9939;DHT22;5008;50.656;7.188;2022-12-20T08:16:25;9.00;99.90
9939;DHT22;5008;50.656;7.188;2022-12-20T08:18:52;9.00;99.90
9939;DHT22;5008;50.656;7.188;2022-12-20T08:21:26;8.90;99.90
9939;DHT22;5008;50.656;7.188;2022-12-20T08:23:53;8.80;99.90
9939;DHT22;5008;50.656;7.188;2022-12-20T08:26:22;8.80;99.90
9939;DHT22;5008;50.656;7.188;2022-12-20T08:28:49;8.90;99.90
9939;DHT22;5008;50.656;7.188;2022-12-20T08:31:16;8.90;99.90
9939;DHT22;5008;50.656;7.188;2022-12-20T08:33:43;8.90;99.90
9939;DHT22;5008;50.656;7.188;2022-12-20T08:36:11;8.90;99.90
9939;DHT22;5008;50.656;7.188;2022-12-20T08:38:39;8.90;99.90
9939;DHT22;5008;50.656;7.188;2022-12-20T08:41:07;8.90;99.90
9939;DHT22;5008;50.656;7.188;2022-12-20T08:43:37;8.90;99.90
9939;DHT22;5008;50.656;7.188;2022-12-20T08:46:05;9.00;99.90
9939;DHT22;5008;50.656;7.188;2022-12-20T08:48:32;9.00;99.90
9939;DHT22;5008;50.656;7.188;2022-12-20T08:51:00;9.00;99.90
9939;DHT22;5008;50.656;7.188;2022-12-20T08:53:27;9.00;99.90
9939;DHT22;5008;50.656;7.188;2022-12-20T08:56:02;9.00;99.90
9939;DHT22;5008;50.656;7.188;2022-12-20T08:58:29;8.90;99.90
9939;DHT22;5008;50.656;7.188;2022-12-20T09:00:59;8.90;99.90
9939;DHT22;5008;50.656;7.188;2022-12-20T09:03:28;8.90;99.90
9939;DHT22;5008;50.656;7.188;2022-12-20T09:05:55;8.90;99.90
9939;DHT22;5008;50.656;7.188;2022-12-20T09:08:23;9.00;99.90
9939;DHT22;5008;50.656;7.188;2022-12-20T09:10:50;9.10;99.90
9939;DHT22;5008;50.656;7.188;2022-12-20T09:13:17;9.20;99.90
9939;DHT22;5008;50.656;7.188;2022-12-20T09:15:46;9.20;99.90
9939;DHT22;5008;50.656;7.188;2022-12-20T09:18:14;9.30;99.90
9939;DHT22;5008;50.656;7.188;2022-12-20T09:20:41;9.30;99.90
9939;DHT22;5008;50.656;7.188;2022-12-20T09:23:09;9.30;99.90
9939;DHT22;5008;50.656;7.188;2022-12-20T09:25:36;9.20;99.90
9939;DHT22;5008;50.656;7.188;2022-12-20T09:28:03;9.20;99.90
9939;DHT22;5008;50.656;7.188;2022-12-20T09:30:30;9.20;99.90
9939;DHT22;5008;50.656;7.188;2022-12-20T09:32:57;9.20;99.90
9939;DHT22;5008;50.656;7.188;2022-12-20T09:35:25;9.10;99.90
9939;DHT22;5008;50.656;7.188;2022-12-20T09:37:52;9.10;99.90
9939;DHT22;5008;50.656;7.188;2022-12-20T09:40:21;9.10;99.90
9939;DHT22;5008;50.656;7.188;2022-12-20T09:42:50;9.00;99.90
9939;DHT22;5008;50.656;7.188;2022-12-20T09:45:23;9.00;99.90
9939;DHT22;5008;50.656;7.188;2022-12-20T09:47:50;9.00;99.90
9939;DHT22;5008;50.656;7.188;2022-12-20T09:50:19;9.20;99.90
9939;DHT22;5008;50.656;7.188;2022-12-20T09:53:04;9.20;99.90
9939;DHT22;5008;50.656;7.188;2022-12-20T09:55:38;9.30;99.90
9939;DHT22;5008;50.656;7.188;2022-12-20T09:58:20;9.40;99.90
9939;DHT22;5008;50.656;7.188;2022-12-20T10:00:51;9.40;99.90
9939;DHT22;5008;50.656;7.188;2022-12-20T10:03:21;9.60;99.90
9939;DHT22;5008;50.656;7.188;2022-12-20T10:05:51;9.80;99.90
9939;DHT22;5008;50.656;7.188;2022-12-20T10:08:38;9.90;99.90
9939;DHT22;5008;50.656;7.188;2022-12-20T10:11:17;9.80;99.90
9939;DHT22;5008;50.656;7.188;2022-12-20T10:13:56;9.80;99.90
9939;DHT22;5008;50.656;7.188;2022-12-20T10:16:44;9.70;99.90
9939;DHT22;5008;50.656;7.188;2022-12-20T10:19:31;9.70;99.90
9939;DHT22;5008;50.656;7.188;2022-12-20T10:22:06;9.70;99.90
9939;DHT22;5008;50.656;7.188;2022-12-20T10:24:37;9.60;99.90
9939;DHT22;5008;50.656;7.188;2022-12-20T10:27:10;9.70;99.90
9939;DHT22;5008;50.656;7.188;2022-12-20T10:29:38;9.70;99.90
9939;DHT22;5008;50.656;7.188;2022-12-20T10:32:12;9.60;99.90
9939;DHT22;5008;50.656;7.188;2022-12-20T10:34:40;9.60;99.90
9939;DHT22;5008;50.656;7.188;2022-12-20T10:37:15;9.60;99.90
9939;DHT22;5008;50.656;7.188;2022-12-20T10:40:04;9.70;99.90
9939;DHT22;5008;50.656;7.188;2022-12-20T10:42:36;9.60;99.90
9939;DHT22;5008;50.656;7.188;2022-12-20T10:45:20;9.50;99.90
9939;DHT22;5008;50.656;7.188;2022-12-20T10:47:57;9.50;99.90
9939;DHT22;5008;50.656;7.188;2022-12-20T10:50:28;9.60;99.90
9939;DHT22;5008;50.656;7.188;2022-12-20T10:53:18;9.70;99.90
9939;DHT22;5008;50.656;7.188;2022-12-20T10:55:52;9.90;99.90
9939;DHT22;5008;50.656;7.188;2022-12-20T10:58:33;9.90;99.90
9939;DHT22;5008;50.656;7.188;2022-12-20T11:01:19;9.80;99.90
9939;DHT22;5008;50.656;7.188;2022-12-20T11:03:53;9.90;99.90
9939;DHT22;5008;50.656;7.188;2022-12-20T11:06:26;9.90;99.90
9939;DHT22;5008;50.656;7.188;2022-12-20T11:09:25;9.90;99.90
9939;DHT22;5008;50.656;7.188;2022-12-20T11:12:03;10.00;99.90
9939;DHT22;5008;50.656;7.188;2022-12-20T11:14:32;10.10;99.90
9939;DHT22;5008;50.656;7.188;2022-12-20T11:17:03;10.00;99.90
9939;DHT22;5008;50.656;7.188;2022-12-20T11:19:39;10.00;99.90
9939;DHT22;5008;50.656;7.188;2022-12-20T11:22:15;10.00;99.90
9939;DHT22;5008;50.656;7.188;2022-12-20T11:24:54;10.10;99.90
9939;DHT22;5008;50.656;7.188;2022-12-20T11:27:31;10.10;99.90
9939;DHT22;5008;50.656;7.188;2022-12-20T11:30:06;10.20;99.90
9939;DHT22;5008;50.656;7.188;2022-12-20T11:32:49;10.30;99.90
9939;DHT22;5008;50.656;7.188;2022-12-20T11:35:27;10.20;99.90
9939;DHT22;5008;50.656;7.188;2022-12-20T11:38:10;10.10;99.90
9939;DHT22;5008;50.656;7.188;2022-12-20T11:40:45;10.10;99.90
9939;DHT22;5008;50.656;7.188;2022-12-20T11:43:37;10.10;99.90
9939;DHT22;5008;50.656;7.188;2022-12-20T11:46:22;10.20;99.90
9939;DHT22;5008;50.656;7.188;2022-12-20T11:52:32;10.10;99.90
9939;DHT22;5008;50.656;7.188;2022-12-20T11:55:33;10.00;99.90
9939;DHT22;5008;50.656;7.188;2022-12-20T11:58:09;10.00;99.90
9939;DHT22;5008;50.656;7.188;2022-12-20T12:00:43;10.00;99.90
9939;DHT22;5008;50.656;7.188;2022-12-20T12:03:18;10.10;99.90
9939;DHT22;5008;50.656;7.188;2022-12-20T12:05:51;10.10;99.90
9939;DHT22;5008;50.656;7.188;2022-12-20T12:08:22;10.20;99.90
9939;DHT22;5008;50.656;7.188;2022-12-20T12:10:56;10.20;99.90
9939;DHT22;5008;50.656;7.188;2022-12-20T12:13:30;10.30;99.90
9939;DHT22;5008;50.656;7.188;2022-12-20T12:16:04;10.40;99.90
9939;DHT22;5008;50.656;7.188;2022-12-20T12:18:33;10.40;99.90
9939;DHT22;5008;50.656;7.188;2022-12-20T12:21:05;10.40;99.90
9939;DHT22;5008;50.656;7.188;2022-12-20T12:23:38;10.40;99.90
9939;DHT22;5008;50.656;7.188;2022-12-20T12:26:13;10.50;99.90
9939;DHT22;5008;50.656;7.188;2022-12-20T12:28:41;10.50;99.90
9939;DHT22;5008;50.656;7.188;2022-12-20T12:31:16;10.50;99.90
9939;DHT22;5008;50.656;7.188;2022-12-20T12:33:49;10.50;99.90
9939;DHT22;5008;50.656;7.188;2022-12-20T12:36:37;10.40;99.90
9939;DHT22;5008;50.656;7.188;2022-12-20T12:39:31;10.50;99.90
9939;DHT22;5008;50.656;7.188;2022-12-20T12:42:43;10.70;99.90
9939;DHT22;5008;50.656;7.188;2022-12-20T12:45:18;10.60;99.90
9939;DHT22;5008;50.656;7.188;2022-12-20T12:47:50;10.50;99.90
9939;DHT22;5008;50.656;7.188;2022-12-20T12:50:26;10.50;99.90
9939;DHT22;5008;50.656;7.188;2022-12-20T12:52:59;10.50;99.90
9939;DHT22;5008;50.656;7.188;2022-12-20T12:55:47;10.50;99.90
9939;DHT22;5008;50.656;7.188;2022-12-20T12:58:31;10.50;99.90
9939;DHT22;5008;50.656;7.188;2022-12-20T13:01:01;10.50;99.90
9939;DHT22;5008;50.656;7.188;2022-12-20T13:04:19;10.50;99.90
9939;DHT22;5008;50.656;7.188;2022-12-20T13:09:48;10.40;99.90
9939;DHT22;5008;50.656;7.188;2022-12-20T13:12:56;10.40;99.90
9939;DHT22;5008;50.656;7.188;2022-12-20T13:16:03;10.40;99.90
9939;DHT22;5008;50.656;7.188;2022-12-20T13:19:02;10.40;99.90
9939;DHT22;5008;50.656;7.188;2022-12-20T13:21:47;10.40;99.90
9939;DHT22;5008;50.656;7.188;2022-12-20T13:24:46;10.40;99.90
9939;DHT22;5008;50.656;7.188;2022-12-20T13:27:51;10.40;99.90
9939;DHT22;5008;50.656;7.188;2022-12-20T13:30:41;10.30;99.90
9939;DHT22;5008;50.656;7.188;2022-12-20T13:33:37;10.30;99.90
9939;DHT22;5008;50.656;7.188;2022-12-20T13:36:33;10.40;99.90
9939;DHT22;5008;50.656;7.188;2022-12-20T13:39:45;10.30;99.90
9939;DHT22;5008;50.656;7.188;2022-12-20T13:42:38;10.20;99.90
9939;DHT22;5008;50.656;7.188;2022-12-20T13:45:12;10.10;99.90
9939;DHT22;5008;50.656;7.188;2022-12-20T13:47:54;10.00;99.90
9939;DHT22;5008;50.656;7.188;2022-12-20T13:50:40;10.00;99.90
9939;DHT22;5008;50.656;7.188;2022-12-20T13:53:17;9.90;99.90
9939;DHT22;5008;50.656;7.188;2022-12-20T13:56:45;9.80;99.90
9939;DHT22;5008;50.656;7.188;2022-12-20T13:59:37;10.00;99.90
9939;DHT22;5008;50.656;7.188;2022-12-20T14:02:19;10.20;99.90
9939;DHT22;5008;50.656;7.188;2022-12-20T14:04:59;10.30;99.90
9939;DHT22;5008;50.656;7.188;2022-12-20T14:07:31;10.30;99.90
9939;DHT22;5008;50.656;7.188;2022-12-20T14:10:11;10.40;99.90
9939;DHT22;5008;50.656;7.188;2022-12-20T14:12:46;10.70;99.90
9939;DHT22;5008;50.656;7.188;2022-12-20T14:15:26;10.80;99.90
9939;DHT22;5008;50.656;7.188;2022-12-20T14:17:54;11.00;99.90
9939;DHT22;5008;50.656;7.188;2022-12-20T14:20:31;11.10;99.90
9939;DHT22;5008;50.656;7.188;2022-12-20T14:23:02;11.20;99.90
9939;DHT22;5008;50.656;7.188;2022-12-20T14:25:36;11.20;99.90
9939;DHT22;5008;50.656;7.188;2022-12-20T14:28:17;11.20;99.90
9939;DHT22;5008;50.656;7.188;2022-12-20T14:30:46;11.20;99.90
9939;DHT22;5008;50.656;7.188;2022-12-20T14:33:19;11.30;99.90
9939;DHT22;5008;50.656;7.188;2022-12-20T14:35:48;11.30;99.90
9939;DHT22;5008;50.656;7.188;2022-12-20T14:38:29;11.30;99.90
9939;DHT22;5008;50.656;7.188;2022-12-20T14:40:56;11.20;99.90
9939;DHT22;5008;50.656;7.188;2022-12-20T14:43:28;11.10;99.90
9939;DHT22;5008;50.656;7.188;2022-12-20T14:46:16;11.20;99.90
9939;DHT22;5008;50.656;7.188;2022-12-20T14:48:44;11.00;99.90
9939;DHT22;5008;50.656;7.188;2022-12-20T14:51:12;10.90;99.90
9939;DHT22;5008;50.656;7.188;2022-12-20T14:53:49;11.00;99.90
9939;DHT22;5008;50.656;7.188;2022-12-20T14:56:20;10.80;99.90
9939;DHT22;5008;50.656;7.188;2022-12-20T14:59:04;10.80;99.90
9939;DHT22;5008;50.656;7.188;2022-12-20T15:01:54;10.70;99.90
9939;DHT22;5008;50.656;7.188;2022-12-20T15:04:23;10.60;99.90
9939;DHT22;5008;50.656;7.188;2022-12-20T15:06:50;10.70;99.90
9939;DHT22;5008;50.656;7.188;2022-12-20T15:09:20;10.70;99.90
9939;DHT22;5008;50.656;7.188;2022-12-20T15:11:48;10.70;99.90
9939;DHT22;5008;50.656;7.188;2022-12-20T15:14:24;10.70;99.90
9939;DHT22;5008;50.656;7.188;2022-12-20T15:16:57;10.70;99.90
9939;DHT22;5008;50.656;7.188;2022-12-20T15:19:24;10.60;99.90
9939;DHT22;5008;50.656;7.188;2022-12-20T15:21:59;10.60;99.90
9939;DHT22;5008;50.656;7.188;2022-12-20T15:24:27;10.50;99.90
9939;DHT22;5008;50.656;7.188;2022-12-20T15:26:55;10.50;99.90
9939;DHT22;5008;50.656;7.188;2022-12-20T15:29:26;10.60;99.90
9939;DHT22;5008;50.656;7.188;2022-12-20T15:31:59;10.90;99.90
9939;DHT22;5008;50.656;7.188;2022-12-20T15:34:33;10.90;99.90
9939;DHT22;5008;50.656;7.188;2022-12-20T15:37:05;10.80;99.90
9939;DHT22;5008;50.656;7.188;2022-12-20T15:39:35;10.80;99.90
9939;DHT22;5008;50.656;7.188;2022-12-20T15:42:03;10.80;99.90
9939;DHT22;5008;50.656;7.188;2022-12-20T15:44:36;10.70;99.90
9939;DHT22;5008;50.656;7.188;2022-12-20T15:47:03;10.70;99.90
9939;DHT22;5008;50.656;7.188;2022-12-20T15:49:33;10.70;99.90
9939;DHT22;5008;50.656;7.188;2022-12-20T15:52:10;10.70;99.90
9939;DHT22;5008;50.656;7.188;2022-12-20T15:55:03;10.70;99.90
9939;DHT22;5008;50.656;7.188;2022-12-20T15:57:31;10.70;99.90
9939;DHT22;5008;50.656;7.188;2022-12-20T16:00:21;10.70;99.90
9939;DHT22;5008;50.656;7.188;2022-12-20T16:02:50;10.70;99.90
9939;DHT22;5008;50.656;7.188;2022-12-20T16:05:17;10.70;99.90
9939;DHT22;5008;50.656;7.188;2022-12-20T16:07:52;10.70;99.90
9939;DHT22;5008;50.656;7.188;2022-12-20T16:10:22;10.70;99.90
9939;DHT22;5008;50.656;7.188;2022-12-20T16:12:50;10.70;99.90
9939;DHT22;5008;50.656;7.188;2022-12-20T16:15:32;10.70;99.90
9939;DHT22;5008;50.656;7.188;2022-12-20T16:18:14;10.80;99.90
9939;DHT22;5008;50.656;7.188;2022-12-20T16:20:44;10.80;99.90
9939;DHT22;5008;50.656;7.188;2022-12-20T16:23:17;10.90;99.90
9939;DHT22;5008;50.656;7.188;2022-12-20T16:26:12;11.00;99.90
9939;DHT22;5008;50.656;7.188;2022-12-20T16:28:44;11.00;99.90
9939;DHT22;5008;50.656;7.188;2022-12-20T16:31:20;11.10;99.90
9939;DHT22;5008;50.656;7.188;2022-12-20T16:33:54;11.00;99.90
9939;DHT22;5008;50.656;7.188;2022-12-20T16:36:22;10.90;99.90
9939;DHT22;5008;50.656;7.188;2022-12-20T16:38:50;11.10;99.90
9939;DHT22;5008;50.656;7.188;2022-12-20T16:41:23;11.10;99.90
9939;DHT22;5008;50.656;7.188;2022-12-20T16:43:53;11.00;99.90
9939;DHT22;5008;50.656;7.188;2022-12-20T16:46:24;10.90;99.90
9939;DHT22;5008;50.656;7.188;2022-12-20T16:48:52;10.90;99.90
9939;DHT22;5008;50.656;7.188;2022-12-20T16:51:31;11.00;99.90
9939;DHT22;5008;50.656;7.188;2022-12-20T16:54:00;11.00;99.90
9939;DHT22;5008;50.656;7.188;2022-12-20T16:56:35;11.00;99.90
9939;DHT22;5008;50.656;7.188;2022-12-20T16:59:02;11.00;99.90
9939;DHT22;5008;50.656;7.188;2022-12-20T17:01:33;10.90;99.90
9939;DHT22;5008;50.656;7.188;2022-12-20T17:04:01;11.00;99.90
9939;DHT22;5008;50.656;7.188;2022-12-20T17:06:28;11.00;99.90
9939;DHT22;5008;50.656;7.188;2022-12-20T17:08:55;11.00;99.90
9939;DHT22;5008;50.656;7.188;2022-12-20T17:11:24;11.00;99.90
9939;DHT22;5008;50.656;7.188;2022-12-20T17:13:53;11.10;99.90
9939;DHT22;5008;50.656;7.188;2022-12-20T17:16:20;11.00;99.90
9939;DHT22;5008;50.656;7.188;2022-12-20T17:18:49;11.10;99.90
9939;DHT22;5008;50.656;7.188;2022-12-20T17:21:20;11.00;99.90
9939;DHT22;5008;50.656;7.188;2022-12-20T17:23:50;10.90;99.90
9939;DHT22;5008;50.656;7.188;2022-12-20T17:26:20;11.00;99.90
9939;DHT22;5008;50.656;7.188;2022-12-20T17:28:48;10.90;99.90
9939;DHT22;5008;50.656;7.188;2022-12-20T17:31:26;10.90;99.90
9939;DHT22;5008;50.656;7.188;2022-12-20T17:36:46;10.90;99.90
9939;DHT22;5008;50.656;7.188;2022-12-20T17:39:13;11.00;99.90
9939;DHT22;5008;50.656;7.188;2022-12-20T17:41:41;11.00;99.90
9939;DHT22;5008;50.656;7.188;2022-12-20T17:44:15;10.90;99.90
9939;DHT22;5008;50.656;7.188;2022-12-20T17:46:42;10.90;99.90
9939;DHT22;5008;50.656;7.188;2022-12-20T17:49:09;11.00;99.90
9939;DHT22;5008;50.656;7.188;2022-12-20T17:51:36;11.00;99.90
9939;DHT22;5008;50.656;7.188;2022-12-20T17:54:04;10.80;99.90
9939;DHT22;5008;50.656;7.188;2022-12-20T17:56:36;10.90;99.90
9939;DHT22;5008;50.656;7.188;2022-12-20T17:59:03;10.90;99.90
9939;DHT22;5008;50.656;7.188;2022-12-20T18:01:31;10.90;99.90
9939;DHT22;5008;50.656;7.188;2022-12-20T18:04:01;11.00;99.90
9939;DHT22;5008;50.656;7.188;2022-12-20T18:06:31;11.00;99.90
9939;DHT22;5008;50.656;7.188;2022-12-20T18:08:59;11.00;99.90
9939;DHT22;5008;50.656;7.188;2022-12-20T18:11:27;10.90;99.90
9939;DHT22;5008;50.656;7.188;2022-12-20T18:13:57;10.90;99.90
9939;DHT22;5008;50.656;7.188;2022-12-20T18:16:25;11.00;99.90
9939;DHT22;5008;50.656;7.188;2022-12-20T18:18:52;10.90;99.90
9939;DHT22;5008;50.656;7.188;2022-12-20T18:21:21;10.80;99.90
9939;DHT22;5008;50.656;7.188;2022-12-20T18:23:49;10.80;99.90
9939;DHT22;5008;50.656;7.188;2022-12-20T18:26:18;10.80;99.90
9939;DHT22;5008;50.656;7.188;2022-12-20T18:28:48;10.80;99.90
9939;DHT22;5008;50.656;7.188;2022-12-20T18:31:46;10.80;99.90
9939;DHT22;5008;50.656;7.188;2022-12-20T18:34:14;10.80;99.90
9939;DHT22;5008;50.656;7.188;2022-12-20T18:36:40;10.80;99.90
9939;DHT22;5008;50.656;7.188;2022-12-20T18:39:11;11.00;99.90
9939;DHT22;5008;50.656;7.188;2022-12-20T18:41:38;11.00;99.90
9939;DHT22;5008;50.656;7.188;2022-12-20T18:44:10;11.00;99.90
9939;DHT22;5008;50.656;7.188;2022-12-20T18:46:36;10.90;99.90
9939;DHT22;5008;50.656;7.188;2022-12-20T18:49:03;11.00;99.90
9939;DHT22;5008;50.656;7.188;2022-12-20T18:51:32;11.00;99.90
9939;DHT22;5008;50.656;7.188;2022-12-20T18:54:04;11.20;99.90
9939;DHT22;5008;50.656;7.188;2022-12-20T18:56:32;11.10;99.90
9939;DHT22;5008;50.656;7.188;2022-12-20T18:59:00;11.00;99.90
9939;DHT22;5008;50.656;7.188;2022-12-20T19:01:31;10.90;99.90
9939;DHT22;5008;50.656;7.188;2022-12-20T19:03:59;11.00;99.90
9939;DHT22;5008;50.656;7.188;2022-12-20T19:06:27;11.00;99.90
9939;DHT22;5008;50.656;7.188;2022-12-20T19:08:54;11.00;99.90
9939;DHT22;5008;50.656;7.188;2022-12-20T19:11:22;10.90;99.90
9939;DHT22;5008;50.656;7.188;2022-12-20T19:13:49;10.90;99.90
9939;DHT22;5008;50.656;7.188;2022-12-20T19:16:18;11.00;99.90
9939;DHT22;5008;50.656;7.188;2022-12-20T19:18:47;10.90;99.90
9939;DHT22;5008;50.656;7.188;2022-12-20T19:21:16;10.80;99.90
9939;DHT22;5008;50.656;7.188;2022-12-20T19:23:45;10.90;99.90
9939;DHT22;5008;50.656;7.188;2022-12-20T19:26:13;10.90;99.90
9939;DHT22;5008;50.656;7.188;2022-12-20T19:28:47;10.90;99.90
9939;DHT22;5008;50.656;7.188;2022-12-20T19:31:16;11.00;99.90
9939;DHT22;5008;50.656;7.188;2022-12-20T19:33:45;10.90;99.90
9939;DHT22;5008;50.656;7.188;2022-12-20T19:36:15;10.90;99.90
9939;DHT22;5008;50.656;7.188;2022-12-20T19:38:43;10.90;99.90
9939;DHT22;5008;50.656;7.188;2022-12-20T19:41:11;10.90;99.90
9939;DHT22;5008;50.656;7.188;2022-12-20T19:43:38;10.90;99.90
9939;DHT22;5008;50.656;7.188;2022-12-20T19:46:05;11.00;99.90
9939;DHT22;5008;50.656;7.188;2022-12-20T19:48:33;11.00;99.90
9939;DHT22;5008;50.656;7.188;2022-12-20T19:51:00;11.00;99.90
9939;DHT22;5008;50.656;7.188;2022-12-20T19:53:29;11.10;99.90
9939;DHT22;5008;50.656;7.188;2022-12-20T19:55:56;11.00;99.90
9939;DHT22;5008;50.656;7.188;2022-12-20T19:58:23;10.90;99.90
9939;DHT22;5008;50.656;7.188;2022-12-20T20:00:51;11.00;99.90
9939;DHT22;5008;50.656;7.188;2022-12-20T20:03:18;11.00;99.90
9939;DHT22;5008;50.656;7.188;2022-12-20T20:05:46;10.90;99.90
9939;DHT22;5008;50.656;7.188;2022-12-20T20:08:17;11.00;99.90
9939;DHT22;5008;50.656;7.188;2022-12-20T20:10:50;11.00;99.90
9939;DHT22;5008;50.656;7.188;2022-12-20T20:13:17;10.90;99.90
9939;DHT22;5008;50.656;7.188;2022-12-20T20:16:08;10.90;99.90
9939;DHT22;5008;50.656;7.188;2022-12-20T20:18:36;10.90;99.90
9939;DHT22;5008;50.656;7.188;2022-12-20T20:21:05;10.90;99.90
9939;DHT22;5008;50.656;7.188;2022-12-20T20:23:34;10.90;99.90
9939;DHT22;5008;50.656;7.188;2022-12-20T20:26:14;11.00;99.90
9939;DHT22;5008;50.656;7.188;2022-12-20T20:28:41;11.00;99.90
9939;DHT22;5008;50.656;7.188;2022-12-20T20:31:09;10.90;99.90
9939;DHT22;5008;50.656;7.188;2022-12-20T20:33:36;10.90;99.90
9939;DHT22;5008;50.656;7.188;2022-12-20T20:36:04;10.90;99.90
9939;DHT22;5008;50.656;7.188;2022-12-20T20:38:32;10.90;99.90
9939;DHT22;5008;50.656;7.188;2022-12-20T20:41:15;10.90;99.90
9939;DHT22;5008;50.656;7.188;2022-12-20T20:43:42;10.80;99.90
9939;DHT22;5008;50.656;7.188;2022-12-20T20:46:12;10.70;99.90
9939;DHT22;5008;50.656;7.188;2022-12-20T20:48:40;10.70;99.90